sensor_id;sensor_type;location;lat;lon;timestamp;pressure;altitude;pressure_sealevel;temperature;humidity
36380;BME280;22411;53.016;18.632;2023-07-28T00:01:36;99656.88;;;17.63;100.00
36380;BME280;22411;53.016;18.632;2023-07-28T00:04:01;99651.25;;;17.66;100.00
36380;BME280;22411;53.016;18.632;2023-07-28T00:06:29;99648.19;;;17.63;100.00
36380;BME280;22411;53.016;18.632;2023-07-28T00:08:55;99642.28;;;17.61;100.00
36380;BME280;22411;53.016;18.632;2023-07-28T00:11:21;99636.41;;;17.59;100.00
36380;BME280;22411;53.016;18.632;2023-07-28T00:13:46;99635.78;;;17.57;100.00
36380;BME280;22411;53.016;18.632;2023-07-28T00:16:12;99636.41;;;17.59;100.00
36380;BME280;22411;53.016;18.632;2023-07-28T00:18:38;99631.00;;;17.60;100.00
36380;BME280;22411;53.016;18.632;2023-07-28T00:21:04;99634.59;;;17.59;100.00
36380;BME280;22411;53.016;18.632;2023-07-28T00:23:30;99629.19;;;17.61;100.00
36380;BME280;22411;53.016;18.632;2023-07-28T00:25:56;99634.09;;;17.64;100.00
36380;BME280;22411;53.016;18.632;2023-07-28T00:28:21;99626.25;;;17.56;100.00
36380;BME280;22411;53.016;18.632;2023-07-28T00:30:50;99624.34;;;17.49;100.00
36380;BME280;22411;53.016;18.632;2023-07-28T00:33:16;99630.75;;;17.47;100.00
36380;BME280;22411;53.016;18.632;2023-07-28T00:35:42;99621.25;;;17.46;100.00
36380;BME280;22411;53.016;18.632;2023-07-28T00:38:10;99626.19;;;17.41;100.00
36380;BME280;22411;53.016;18.632;2023-07-28T00:40:36;99622.75;;;17.40;100.00
36380;BME280;22411;53.016;18.632;2023-07-28T00:43:02;99627.69;;;17.35;100.00
36380;BME280;22411;53.016;18.632;2023-07-28T00:45:29;99616.41;;;17.27;100.00
36380;BME280;22411;53.016;18.632;2023-07-28T00:47:55;99621.66;;;17.27;100.00
36380;BME280;22411;53.016;18.632;2023-07-28T00:50:23;99623.94;;;17.30;100.00
36380;BME280;22411;53.016;18.632;2023-07-28T00:52:50;99620.16;;;17.32;100.00
36380;BME280;22411;53.016;18.632;2023-07-28T00:55:16;99626.88;;;17.35;100.00
36380;BME280;22411;53.016;18.632;2023-07-28T00:57:42;99616.41;;;17.35;100.00
36380;BME280;22411;53.016;18.632;2023-07-28T01:00:09;99618.16;;;17.34;100.00
36380;BME280;22411;53.016;18.632;2023-07-28T01:02:35;99612.47;;;17.31;100.00
36380;BME280;22411;53.016;18.632;2023-07-28T01:05:02;99614.28;;;17.30;100.00
36380;BME280;22411;53.016;18.632;2023-07-28T01:07:53;99601.19;;;17.30;100.00
36380;BME280;22411;53.016;18.632;2023-07-28T01:10:31;99608.22;;;17.30;100.00
36380;BME280;22411;53.016;18.632;2023-07-28T01:12:57;99604.63;;;17.31;100.00
36380;BME280;22411;53.016;18.632;2023-07-28T01:15:23;99597.75;;;17.30;100.00
36380;BME280;22411;53.016;18.632;2023-07-28T01:17:49;99594.97;;;17.31;100.00
36380;BME280;22411;53.016;18.632;2023-07-28T01:20:15;99586.91;;;17.33;100.00
36380;BME280;22411;53.016;18.632;2023-07-28T01:25:20;99579.06;;;17.33;100.00
36380;BME280;22411;53.016;18.632;2023-07-28T01:27:48;99578.59;;;17.29;100.00
36380;BME280;22411;53.016;18.632;2023-07-28T01:30:15;99575.16;;;17.29;100.00
36380;BME280;22411;53.016;18.632;2023-07-28T01:32:41;99573.88;;;17.24;100.00
36380;BME280;22411;53.016;18.632;2023-07-28T01:35:07;99576.66;;;17.23;100.00
36380;BME280;22411;53.016;18.632;2023-07-28T01:37:33;99576.50;;;17.16;100.00
36380;BME280;22411;53.016;18.632;2023-07-28T01:39:59;99579.31;;;17.15;100.00
36380;BME280;22411;53.016;18.632;2023-07-28T01:42:24;99572.44;;;17.14;100.00
36380;BME280;22411;53.016;18.632;2023-07-28T01:44:50;99574.06;;;17.15;100.00
36380;BME280;22411;53.016;18.632;2023-07-28T01:47:16;99566.84;;;17.17;100.00
36380;BME280;22411;53.016;18.632;2023-07-28T01:49:41;99567.97;;;17.22;100.00
36380;BME280;22411;53.016;18.632;2023-07-28T01:52:07;99564.53;;;17.22;100.00
36380;BME280;22411;53.016;18.632;2023-07-28T01:54:33;99560.31;;;17.21;100.00
36380;BME280;22411;53.016;18.632;2023-07-28T01:56:58;99558.50;;;17.21;100.00
36380;BME280;22411;53.016;18.632;2023-07-28T01:59:24;99557.69;;;17.21;100.00
36380;BME280;22411;53.016;18.632;2023-07-28T02:01:50;99557.69;;;17.13;100.00
36380;BME280;22411;53.016;18.632;2023-07-28T02:04:15;99561.81;;;17.07;100.00
36380;BME280;22411;53.016;18.632;2023-07-28T02:06:42;99557.13;;;16.94;100.00
36380;BME280;22411;53.016;18.632;2023-07-28T02:09:07;99563.19;;;16.87;100.00
36380;BME280;22411;53.016;18.632;2023-07-28T02:11:33;99558.81;;;16.79;100.00
36380;BME280;22411;53.016;18.632;2023-07-28T02:13:59;99551.81;;;16.71;100.00
36380;BME280;22411;53.016;18.632;2023-07-28T02:16:25;99554.88;;;16.67;100.00
36380;BME280;22411;53.016;18.632;2023-07-28T02:18:53;99557.19;;;16.62;100.00
36380;BME280;22411;53.016;18.632;2023-07-28T02:21:19;99553.09;;;16.59;100.00
36380;BME280;22411;53.016;18.632;2023-07-28T02:23:45;99548.69;;;16.60;100.00
36380;BME280;22411;53.016;18.632;2023-07-28T02:26:11;99546.72;;;16.54;100.00
36380;BME280;22411;53.016;18.632;2023-07-28T02:28:37;99541.84;;;16.51;100.00
36380;BME280;22411;53.016;18.632;2023-07-28T02:31:02;99535.63;;;16.52;100.00
36380;BME280;22411;53.016;18.632;2023-07-28T02:33:28;99535.44;;;16.45;100.00
36380;BME280;22411;53.016;18.632;2023-07-28T02:35:56;99532.06;;;16.36;100.00
36380;BME280;22411;53.016;18.632;2023-07-28T02:38:21;99528.28;;;16.39;100.00
36380;BME280;22411;53.016;18.632;2023-07-28T02:40:47;99534.66;;;16.36;100.00
36380;BME280;22411;53.016;18.632;2023-07-28T02:43:13;99528.28;;;16.39;100.00
36380;BME280;22411;53.016;18.632;2023-07-28T02:45:39;99523.88;;;16.31;100.00
36380;BME280;22411;53.016;18.632;2023-07-28T02:48:04;99517.53;;;16.26;100.00
36380;BME280;22411;53.016;18.632;2023-07-28T02:50:30;99524.56;;;16.25;100.00
36380;BME280;22411;53.016;18.632;2023-07-28T02:52:56;99517.69;;;16.24;100.00
36380;BME280;22411;53.016;18.632;2023-07-28T02:55:22;99519.97;;;16.27;100.00
36380;BME280;22411;53.016;18.632;2023-07-28T02:57:47;99525.19;;;16.27;100.00
36380;BME280;22411;53.016;18.632;2023-07-28T03:00:13;99524.38;;;16.27;100.00
36380;BME280;22411;53.016;18.632;2023-07-28T03:02:39;99526.81;;;16.28;100.00
36380;BME280;22411;53.016;18.632;2023-07-28T03:05:05;99518.50;;;16.25;100.00
36380;BME280;22411;53.016;18.632;2023-07-28T03:07:31;99509.50;;;16.27;100.00
36380;BME280;22411;53.016;18.632;2023-07-28T03:09:57;99516.53;;;16.27;100.00
36380;BME280;22411;53.016;18.632;2023-07-28T03:12:23;99511.31;;;16.27;100.00
36380;BME280;22411;53.016;18.632;2023-07-28T03:14:49;99513.75;;;16.28;100.00
36380;BME280;22411;53.016;18.632;2023-07-28T03:17:14;99512.28;;;16.26;100.00
36380;BME280;22411;53.016;18.632;2023-07-28T03:19:40;99504.75;;;16.23;100.00
36380;BME280;22411;53.016;18.632;2023-07-28T03:22:06;99506.72;;;16.29;100.00
36380;BME280;22411;53.016;18.632;2023-07-28T03:24:31;99509.34;;;16.29;100.00
36380;BME280;22411;53.016;18.632;2023-07-28T03:26:57;99510.81;;;16.31;100.00
36380;BME280;22411;53.016;18.632;2023-07-28T03:29:23;99510.00;;;16.31;100.00
36380;BME280;22411;53.016;18.632;2023-07-28T03:31:48;99502.78;;;16.33;100.00
36380;BME280;22411;53.016;18.632;2023-07-28T03:34:14;99498.38;;;16.33;100.00
36380;BME280;22411;53.016;18.632;2023-07-28T03:36:39;99495.63;;;16.35;100.00
36380;BME280;22411;53.016;18.632;2023-07-28T03:39:05;99494.31;;;16.31;100.00
36380;BME280;22411;53.016;18.632;2023-07-28T03:41:31;99487.09;;;16.33;100.00
36380;BME280;22411;53.016;18.632;2023-07-28T03:43:56;99487.91;;;16.33;100.00
36380;BME280;22411;53.016;18.632;2023-07-28T03:46:22;99486.28;;;16.32;100.00
36380;BME280;22411;53.016;18.632;2023-07-28T03:48:48;99490.72;;;16.32;100.00
36380;BME280;22411;53.016;18.632;2023-07-28T03:51:13;99493.16;;;16.33;100.00
36380;BME280;22411;53.016;18.632;2023-07-28T03:53:39;99494.47;;;16.37;100.00
36380;BME280;22411;53.016;18.632;2023-07-28T03:56:05;99495.63;;;16.35;100.00
36380;BME280;22411;53.016;18.632;2023-07-28T03:58:31;99489.53;;;16.34;100.00
36380;BME280;22411;53.016;18.632;2023-07-28T04:00:56;99487.91;;;16.33;100.00
36380;BME280;22411;53.016;18.632;2023-07-28T04:03:22;99479.59;;;16.38;100.00
36380;BME280;22411;53.016;18.632;2023-07-28T04:05:48;99479.59;;;16.38;100.00
36380;BME280;22411;53.016;18.632;2023-07-28T04:08:14;99478.44;;;16.40;100.00
36380;BME280;22411;53.016;18.632;2023-07-28T04:10:39;99481.88;;;16.41;100.00
36380;BME280;22411;53.016;18.632;2023-07-28T04:13:05;99475.84;;;16.40;100.00
36380;BME280;22411;53.016;18.632;2023-07-28T04:15:30;99480.41;;;16.38;100.00
36380;BME280;22411;53.016;18.632;2023-07-28T04:17:56;99474.84;;;16.41;100.00
36380;BME280;22411;53.016;18.632;2023-07-28T04:20:22;99464.56;;;16.40;100.00
36380;BME280;22411;53.016;18.632;2023-07-28T04:22:47;99474.50;;;16.44;100.00
36380;BME280;22411;53.016;18.632;2023-07-28T04:25:13;99462.41;;;16.43;100.00
36380;BME280;22411;53.016;18.632;2023-07-28T04:27:38;99461.78;;;16.41;100.00
36380;BME280;22411;53.016;18.632;2023-07-28T04:30:05;99460.59;;;16.44;100.00
36380;BME280;22411;53.016;18.632;2023-07-28T04:32:31;99462.41;;;16.43;100.00
36380;BME280;22411;53.016;18.632;2023-07-28T04:34:57;99458.78;;;16.44;100.00
36380;BME280;22411;53.016;18.632;2023-07-28T04:37:22;99458.97;;;16.43;100.00
36380;BME280;22411;53.016;18.632;2023-07-28T04:39:48;99452.94;;;16.42;100.00
36380;BME280;22411;53.016;18.632;2023-07-28T04:42:13;99454.09;;;16.40;100.00
36380;BME280;22411;53.016;18.632;2023-07-28T04:44:39;99459.34;;;16.40;100.00
36380;BME280;22411;53.016;18.632;2023-07-28T04:47:06;99448.38;;;16.36;100.00
36380;BME280;22411;53.016;18.632;2023-07-28T04:49:32;99451.16;;;16.35;100.00
36380;BME280;22411;53.016;18.632;2023-07-28T04:51:57;99451.63;;;16.38;100.00
36380;BME280;22411;53.016;18.632;2023-07-28T04:54:25;99450.19;;;16.36;100.00
36380;BME280;22411;53.016;18.632;2023-07-28T04:56:50;99452.78;;;16.36;100.00
36380;BME280;22411;53.016;18.632;2023-07-28T04:59:18;99447.56;;;16.36;100.00
36380;BME280;22411;53.016;18.632;2023-07-28T05:01:44;99452.13;;;16.34;100.00
36380;BME280;22411;53.016;18.632;2023-07-28T05:04:10;99457.03;;;16.29;100.00
36380;BME280;22411;53.016;18.632;2023-07-28T05:06:35;99451.50;;;16.24;100.00
36380;BME280;22411;53.016;18.632;2023-07-28T05:09:01;99449.22;;;16.12;100.00
36380;BME280;22411;53.016;18.632;2023-07-28T05:11:27;99449.09;;;16.06;100.00
36380;BME280;22411;53.016;18.632;2023-07-28T05:13:53;99441.25;;;15.98;100.00
36380;BME280;22411;53.016;18.632;2023-07-28T05:16:18;99441.09;;;15.91;100.00
36380;BME280;22411;53.016;18.632;2023-07-28T05:18:44;99440.09;;;15.92;100.00
36380;BME280;22411;53.016;18.632;2023-07-28T05:21:09;99447.13;;;15.91;100.00
36380;BME280;22411;53.016;18.632;2023-07-28T05:23:35;99441.59;;;15.86;100.00
36380;BME280;22411;53.016;18.632;2023-07-28T05:26:01;99439.97;;;15.85;100.00
36380;BME280;22411;53.016;18.632;2023-07-28T05:28:26;99442.41;;;15.87;100.00
36380;BME280;22411;53.016;18.632;2023-07-28T05:30:52;99443.06;;;15.89;100.00
36380;BME280;22411;53.016;18.632;2023-07-28T05:33:18;99438.81;;;15.88;100.00
36380;BME280;22411;53.016;18.632;2023-07-28T05:35:43;99437.34;;;15.85;100.00
36380;BME280;22411;53.016;18.632;2023-07-28T05:38:09;99433.75;;;15.86;100.00
36380;BME280;22411;53.016;18.632;2023-07-28T05:40:34;99434.56;;;15.87;100.00
36380;BME280;22411;53.016;18.632;2023-07-28T05:43:00;99431.63;;;15.82;100.00
36380;BME280;22411;53.016;18.632;2023-07-28T05:45:26;99428.22;;;15.73;100.00
36380;BME280;22411;53.016;18.632;2023-07-28T05:47:51;99426.72;;;15.71;100.00
36380;BME280;22411;53.016;18.632;2023-07-28T05:50:17;99422.03;;;15.66;100.00
36380;BME280;22411;53.016;18.632;2023-07-28T05:52:43;99430.31;;;15.61;100.00
36380;BME280;22411;53.016;18.632;2023-07-28T05:55:08;99427.84;;;15.60;100.00
36380;BME280;22411;53.016;18.632;2023-07-28T05:57:34;99424.59;;;15.58;100.00
36380;BME280;22411;53.016;18.632;2023-07-28T05:59:59;99422.97;;;15.57;100.00
36380;BME280;22411;53.016;18.632;2023-07-28T06:02:25;99422.28;;;15.55;100.00
36380;BME280;22411;53.016;18.632;2023-07-28T06:04:51;99427.38;;;15.56;100.00
36380;BME280;22411;53.016;18.632;2023-07-28T06:07:17;99421.66;;;15.61;100.00
36380;BME280;22411;53.016;18.632;2023-07-28T06:09:43;99422.50;;;15.69;100.00
36380;BME280;22411;53.016;18.632;2023-07-28T06:12:09;99422.50;;;15.78;100.00
36380;BME280;22411;53.016;18.632;2023-07-28T06:14:35;99420.69;;;15.86;100.00
36380;BME280;22411;53.016;18.632;2023-07-28T06:17:01;99421.50;;;15.87;100.00
36380;BME280;22411;53.016;18.632;2023-07-28T06:19:26;99419.88;;;15.86;100.00
36380;BME280;22411;53.016;18.632;2023-07-28T06:21:52;99418.56;;;15.82;100.00
36380;BME280;22411;53.016;18.632;2023-07-28T06:24:18;99416.94;;;15.81;100.00
36380;BME280;22411;53.016;18.632;2023-07-28T06:26:44;99422.31;;;15.79;100.00
36380;BME280;22411;53.016;18.632;2023-07-28T06:29:10;99414.66;;;15.78;100.00
36380;BME280;22411;53.016;18.632;2023-07-28T06:31:36;99414.16;;;15.74;100.00
36380;BME280;22411;53.016;18.632;2023-07-28T06:34:01;99412.53;;;15.73;100.00
36380;BME280;22411;53.016;18.632;2023-07-28T06:36:27;99409.75;;;15.75;100.00
36380;BME280;22411;53.016;18.632;2023-07-28T06:38:53;99408.97;;;15.66;100.00
36380;BME280;22411;53.016;18.632;2023-07-28T06:41:23;99407.75;;;15.60;100.00
36380;BME280;22411;53.016;18.632;2023-07-28T06:43:49;99415.16;;;15.65;100.00
36380;BME280;22411;53.016;18.632;2023-07-28T06:46:15;99414.00;;;15.67;100.00
36380;BME280;22411;53.016;18.632;2023-07-28T06:48:40;99414.66;;;15.69;100.00
36380;BME280;22411;53.016;18.632;2023-07-28T06:51:06;99419.06;;;15.69;100.00
36380;BME280;22411;53.016;18.632;2023-07-28T06:53:32;99410.59;;;15.67;100.00
36380;BME280;22411;53.016;18.632;2023-07-28T06:56:00;99409.41;;;15.53;100.00
36380;BME280;22411;53.016;18.632;2023-07-28T06:58:25;99411.38;;;15.51;100.00
36380;BME280;22411;53.016;18.632;2023-07-28T07:00:51;99406.47;;;15.48;100.00
36380;BME280;22411;53.016;18.632;2023-07-28T07:03:17;99410.88;;;15.48;100.00
36380;BME280;22411;53.016;18.632;2023-07-28T07:05:43;99412.97;;;15.44;100.00
36380;BME280;22411;53.016;18.632;2023-07-28T07:08:09;99414.66;;;15.45;100.00
36380;BME280;22411;53.016;18.632;2023-07-28T07:10:35;99413.16;;;15.42;100.00
36380;BME280;22411;53.016;18.632;2023-07-28T07:13:00;99414.13;;;15.41;100.00
36380;BME280;22411;53.016;18.632;2023-07-28T07:15:26;99419.88;;;15.45;100.00
36380;BME280;22411;53.016;18.632;2023-07-28T07:17:51;99415.78;;;15.42;100.00
36380;BME280;22411;53.016;18.632;2023-07-28T07:20:17;99409.41;;;15.45;100.00
36380;BME280;22411;53.016;18.632;2023-07-28T07:22:43;99402.72;;;15.51;100.00
36380;BME280;22411;53.016;18.632;2023-07-28T07:25:09;99403.53;;;15.51;100.00
36380;BME280;22411;53.016;18.632;2023-07-28T07:27:34;99396.50;;;15.43;100.00
36380;BME280;22411;53.016;18.632;2023-07-28T07:30:00;99403.84;;;15.48;100.00
36380;BME280;22411;53.016;18.632;2023-07-28T07:32:25;99413.50;;;15.56;100.00
36380;BME280;22411;53.016;18.632;2023-07-28T07:34:51;99412.38;;;15.66;100.00
36380;BME280;22411;53.016;18.632;2023-07-28T07:37:18;99407.50;;;15.72;100.00
36380;BME280;22411;53.016;18.632;2023-07-28T07:39:44;99404.34;;;15.76;100.00
36380;BME280;22411;53.016;18.632;2023-07-28T07:42:10;99401.25;;;15.81;100.00
36380;BME280;22411;53.016;18.632;2023-07-28T07:44:37;99405.19;;;15.85;100.00
36380;BME280;22411;53.016;18.632;2023-07-28T07:47:11;99406.81;;;15.86;100.00
36380;BME280;22411;53.016;18.632;2023-07-28T07:49:37;99401.09;;;15.90;100.00
36380;BME280;22411;53.016;18.632;2023-07-28T07:52:03;99406.31;;;15.99;100.00
36380;BME280;22411;53.016;18.632;2023-07-28T07:54:30;99401.59;;;15.94;100.00
36380;BME280;22411;53.016;18.632;2023-07-28T07:56:56;99408.44;;;16.03;100.00
36380;BME280;22411;53.016;18.632;2023-07-28T07:59:22;99401.53;;;16.10;100.00
36380;BME280;22411;53.016;18.632;2023-07-28T08:01:47;99397.78;;;16.13;100.00
36380;BME280;22411;53.016;18.632;2023-07-28T08:04:14;99395.50;;;16.02;100.00
36380;BME280;22411;53.016;18.632;2023-07-28T08:06:39;99399.09;;;16.01;100.00
36380;BME280;22411;53.016;18.632;2023-07-28T08:09:05;99396.47;;;16.17;100.00
36380;BME280;22411;53.016;18.632;2023-07-28T08:11:31;99401.00;;;16.31;100.00
36380;BME280;22411;53.016;18.632;2023-07-28T08:13:57;99395.72;;;16.47;100.00
36380;BME280;22411;53.016;18.632;2023-07-28T08:16:23;99400.69;;;16.65;100.00
36380;BME280;22411;53.016;18.632;2023-07-28T08:18:49;99407.72;;;16.65;100.00
36380;BME280;22411;53.016;18.632;2023-07-28T08:21:14;99411.00;;;16.67;100.00
36380;BME280;22411;53.016;18.632;2023-07-28T08:23:40;99402.69;;;16.63;100.00
36380;BME280;22411;53.016;18.632;2023-07-28T08:26:06;99414.94;;;16.63;100.00
36380;BME280;22411;53.016;18.632;2023-07-28T08:28:31;99420.66;;;16.66;100.00
36380;BME280;22411;53.016;18.632;2023-07-28T08:30:58;99412.97;;;16.65;100.00
36380;BME280;22411;53.016;18.632;2023-07-28T08:33:24;99416.75;;;16.62;100.00
36380;BME280;22411;53.016;18.632;2023-07-28T08:35:50;99407.09;;;16.63;100.00
36380;BME280;22411;53.016;18.632;2023-07-28T08:38:16;99407.91;;;16.63;100.00
36380;BME280;22411;53.016;18.632;2023-07-28T08:40:43;99412.47;;;16.69;100.00
36380;BME280;22411;53.016;18.632;2023-07-28T08:43:10;99408.03;;;16.78;100.00
36380;BME280;22411;53.016;18.632;2023-07-28T08:45:36;99408.34;;;16.83;100.00
36380;BME280;22411;53.016;18.632;2023-07-28T08:48:02;99407.84;;;16.80;100.00
36380;BME280;22411;53.016;18.632;2023-07-28T08:50:27;99405.06;;;16.81;100.00
36380;BME280;22411;53.016;18.632;2023-07-28T08:52:53;99413.09;;;16.80;100.00
36380;BME280;22411;53.016;18.632;2023-07-28T08:55:19;99403.44;;;16.80;100.00
36380;BME280;22411;53.016;18.632;2023-07-28T08:57:45;99406.88;;;16.81;100.00
36380;BME280;22411;53.016;18.632;2023-07-28T09:00:11;99408.34;;;16.83;100.00
36380;BME280;22411;53.016;18.632;2023-07-28T09:02:42;99403.41;;;16.88;100.00
36380;BME280;22411;53.016;18.632;2023-07-28T09:05:19;99407.66;;;16.89;100.00
36380;BME280;22411;53.016;18.632;2023-07-28T09:07:45;99406.84;;;16.89;100.00
36380;BME280;22411;53.016;18.632;2023-07-28T09:10:11;99394.19;;;16.92;100.00
36380;BME280;22411;53.016;18.632;2023-07-28T09:12:47;99396.59;;;17.02;100.00
36380;BME280;22411;53.016;18.632;2023-07-28T09:15:13;99397.03;;;17.14;100.00
36380;BME280;22411;53.016;18.632;2023-07-28T09:17:43;99405.09;;;17.35;100.00
36380;BME280;22411;53.016;18.632;2023-07-28T09:20:13;99403.84;;;17.46;100.00
36380;BME280;22411;53.016;18.632;2023-07-28T09:22:39;99397.63;;;17.47;100.00
36380;BME280;22411;53.016;18.632;2023-07-28T09:25:16;99396.00;;;17.61;100.00
36380;BME280;22411;53.016;18.632;2023-07-28T09:27:50;99388.91;;;17.69;100.00
36380;BME280;22411;53.016;18.632;2023-07-28T09:30:16;99393.47;;;17.75;100.00
36380;BME280;22411;53.016;18.632;2023-07-28T09:32:50;99392.94;;;17.80;100.00
36380;BME280;22411;53.016;18.632;2023-07-28T09:35:16;99390.69;;;17.77;100.00
36380;BME280;22411;53.016;18.632;2023-07-28T09:37:44;99393.84;;;17.72;100.00
36380;BME280;22411;53.016;18.632;2023-07-28T09:40:11;99396.16;;;17.67;100.00
36380;BME280;22411;53.016;18.632;2023-07-28T09:42:42;99390.38;;;17.72;100.00
36380;BME280;22411;53.016;18.632;2023-07-28T09:45:08;99393.22;;;17.85;100.00
36380;BME280;22411;53.016;18.632;2023-07-28T09:47:36;99379.94;;;17.87;100.00
36380;BME280;22411;53.016;18.632;2023-07-28T09:50:04;99384.72;;;17.98;100.00
36380;BME280;22411;53.016;18.632;2023-07-28T09:52:39;99383.56;;;18.00;100.00
36380;BME280;22411;53.016;18.632;2023-07-28T09:55:08;99384.03;;;18.04;100.00
36380;BME280;22411;53.016;18.632;2023-07-28T09:58:05;99381.03;;;18.07;100.00
36380;BME280;22411;53.016;18.632;2023-07-28T10:00:34;99377.53;;;18.15;100.00
36380;BME280;22411;53.016;18.632;2023-07-28T10:03:03;99378.50;;;18.28;100.00
36380;BME280;22411;53.016;18.632;2023-07-28T10:05:29;99373.78;;;18.39;100.00
36380;BME280;22411;53.016;18.632;2023-07-28T10:07:56;99383.56;;;18.45;100.00
36380;BME280;22411;53.016;18.632;2023-07-28T10:10:22;99380.13;;;18.44;100.00
36380;BME280;22411;53.016;18.632;2023-07-28T10:12:49;99382.19;;;18.49;100.00
36380;BME280;22411;53.016;18.632;2023-07-28T10:15:20;99386.72;;;18.55;100.00
36380;BME280;22411;53.016;18.632;2023-07-28T10:17:54;99391.34;;;18.53;100.00
36380;BME280;22411;53.016;18.632;2023-07-28T10:23:11;99378.22;;;18.53;100.00
36380;BME280;22411;53.016;18.632;2023-07-28T10:25:37;99384.00;;;18.63;100.00
36380;BME280;22411;53.016;18.632;2023-07-28T10:28:05;99379.66;;;18.70;100.00
36380;BME280;22411;53.016;18.632;2023-07-28T10:30:39;99374.72;;;18.82;100.00
36380;BME280;22411;53.016;18.632;2023-07-28T10:33:38;99375.75;;;19.02;100.00
36380;BME280;22411;53.016;18.632;2023-07-28T10:39:16;99362.28;;;19.27;100.00
36380;BME280;22411;53.016;18.632;2023-07-28T10:44:26;99365.44;;;19.44;100.00
36380;BME280;22411;53.016;18.632;2023-07-28T10:46:52;99370.69;;;19.44;100.00
36380;BME280;22411;53.016;18.632;2023-07-28T10:49:19;99372.72;;;19.42;100.00
36380;BME280;22411;53.016;18.632;2023-07-28T10:51:45;99367.31;;;19.50;100.00
36380;BME280;22411;53.016;18.632;2023-07-28T10:54:10;99358.75;;;19.63;100.00
36380;BME280;22411;53.016;18.632;2023-07-28T10:56:41;99357.91;;;19.83;100.00
36380;BME280;22411;53.016;18.632;2023-07-28T10:59:07;99362.84;;;20.00;100.00
36380;BME280;22411;53.016;18.632;2023-07-28T11:01:37;99358.34;;;20.28;100.00
36380;BME280;22411;53.016;18.632;2023-07-28T11:04:29;99369.63;;;21.31;100.00
36380;BME280;22411;53.016;18.632;2023-07-28T11:06:55;99355.00;;;21.95;100.00
36380;BME280;22411;53.016;18.632;2023-07-28T11:09:22;99361.47;;;22.12;100.00
36380;BME280;22411;53.016;18.632;2023-07-28T11:11:51;99362.25;;;22.06;100.00
36380;BME280;22411;53.016;18.632;2023-07-28T11:14:17;99360.50;;;21.80;100.00
36380;BME280;22411;53.016;18.632;2023-07-28T11:16:44;99359.91;;;21.58;100.00
36380;BME280;22411;53.016;18.632;2023-07-28T11:19:13;99374.72;;;21.46;100.00
36380;BME280;22411;53.016;18.632;2023-07-28T11:21:45;99371.63;;;21.29;100.00
36380;BME280;22411;53.016;18.632;2023-07-28T11:24:18;99375.00;;;20.97;100.00
36380;BME280;22411;53.016;18.632;2023-07-28T11:26:44;99375.00;;;20.97;100.00
36380;BME280;22411;53.016;18.632;2023-07-28T11:29:11;99372.41;;;21.10;100.00
36380;BME280;22411;53.016;18.632;2023-07-28T11:31:37;99373.88;;;21.26;100.00
36380;BME280;22411;53.016;18.632;2023-07-28T11:34:02;99380.19;;;21.38;100.00
36380;BME280;22411;53.016;18.632;2023-07-28T11:36:30;99368.63;;;21.52;100.00
36380;BME280;22411;53.016;18.632;2023-07-28T11:38:59;99366.97;;;21.91;100.00
36380;BME280;22411;53.016;18.632;2023-07-28T11:41:26;99370.00;;;22.01;100.00
36380;BME280;22411;53.016;18.632;2023-07-28T11:43:53;99361.69;;;22.04;100.00
36380;BME280;22411;53.016;18.632;2023-07-28T11:46:35;99372.78;;;22.78;100.00
36380;BME280;22411;53.016;18.632;2023-07-28T11:49:11;99380.47;;;22.86;100.00
36380;BME280;22411;53.016;18.632;2023-07-28T11:51:41;99377.44;;;22.82;100.00
36380;BME280;22411;53.016;18.632;2023-07-28T11:54:12;99379.66;;;22.34;100.00
36380;BME280;22411;53.016;18.632;2023-07-28T11:56:42;99377.13;;;21.54;100.00
36380;BME280;22411;53.016;18.632;2023-07-28T11:59:09;99381.50;;;20.94;100.00
36380;BME280;22411;53.016;18.632;2023-07-28T12:01:36;99392.41;;;20.36;100.00
36380;BME280;22411;53.016;18.632;2023-07-28T12:04:23;99370.66;;;19.37;100.00
36380;BME280;22411;53.016;18.632;2023-07-28T12:07:12;99371.56;;;19.08;100.00
36380;BME280;22411;53.016;18.632;2023-07-28T12:12:26;99365.75;;;18.91;100.00
36380;BME280;22411;53.016;18.632;2023-07-28T12:14:52;99361.16;;;19.36;100.00
36380;BME280;22411;53.016;18.632;2023-07-28T12:17:20;99361.97;;;20.27;100.00
36380;BME280;22411;53.016;18.632;2023-07-28T12:20:02;99379.47;;;20.89;100.00
36380;BME280;22411;53.016;18.632;2023-07-28T12:22:42;99377.09;;;21.21;100.00
36380;BME280;22411;53.016;18.632;2023-07-28T12:25:09;99386.22;;;21.25;100.00
36380;BME280;22411;53.016;18.632;2023-07-28T12:27:35;99385.25;;;21.33;100.00
36380;BME280;22411;53.016;18.632;2023-07-28T12:30:02;99381.13;;;21.24;100.00
36380;BME280;22411;53.016;18.632;2023-07-28T12:32:28;99384.94;;;20.95;100.00
36380;BME280;22411;53.016;18.632;2023-07-28T12:34:54;99382.75;;;20.50;100.00
36380;BME280;22411;53.016;18.632;2023-07-28T12:37:20;99384.00;;;20.54;100.00
36380;BME280;22411;53.016;18.632;2023-07-28T12:39:48;99394.75;;;20.66;100.00
36380;BME280;22411;53.016;18.632;2023-07-28T12:42:14;99392.91;;;21.21;100.00
36380;BME280;22411;53.016;18.632;2023-07-28T12:44:41;99387.66;;;22.01;100.00
36380;BME280;22411;53.016;18.632;2023-07-28T12:47:07;99391.09;;;22.21;100.00
36380;BME280;22411;53.016;18.632;2023-07-28T12:49:33;99418.63;;;22.52;100.00
36380;BME280;22411;53.016;18.632;2023-07-28T12:52:00;99416.66;;;22.14;100.00
36380;BME280;22411;53.016;18.632;2023-07-28T12:54:26;99408.56;;;21.96;100.00